Time;durP1;ratioP1;P1;durP2;ratioP2;P2;SDS_P1;SDS_P2;PMS_P1;PMS_P2;Temp;Humidity;BMP_temperature;BMP_pressure;BME280_temperature;BME280_humidity;BME280_pressure;Samples;Min_cycle;Max_cycle;Signal;HPM_P1;HPM_P2
2022/07/04 00:00:17;;;;;;;0.60;0.60;;;;;;;26.49;40.71;95321.38;5037906;28;20192;-63
2022/07/04 00:02:45;;;;;;;0.50;0.50;;;;;;;26.50;40.55;95314.84;5051651;28;20262;-63
2022/07/04 00:05:13;;;;;;;0.60;0.60;;;;;;;26.40;40.74;95328.81;5037119;28;20250;-64
2022/07/04 00:07:42;;;;;;;1.93;0.70;;;;;;;26.37;41.00;95324.09;5031179;28;20585;-64
2022/07/04 00:10:15;;;;;;;0.43;0.43;;;;;;;26.31;40.49;95328.19;5031106;28;20193;-64
2022/07/04 00:12:42;;;;;;;0.50;0.50;;;;;;;26.24;40.78;95324.53;5048699;28;20193;-63
2022/07/04 00:15:11;;;;;;;0.30;0.30;;;;;;;25.60;41.41;95327.31;5031917;28;20251;-64
2022/07/04 00:17:37;;;;;;;0.30;0.30;;;;;;;25.55;41.77;95324.84;5032650;28;20232;-63
2022/07/04 00:20:06;;;;;;;1.33;1.03;;;;;;;25.77;41.57;95318.97;5051547;28;20200;-63
2022/07/04 00:22:33;;;;;;;0.20;0.20;;;;;;;25.57;41.42;95317.22;5051432;28;20219;-64
2022/07/04 00:24:59;;;;;;;1.50;1.00;;;;;;;25.98;41.00;95314.97;5031242;28;20283;-65
2022/07/04 00:27:27;;;;;;;0.53;0.30;;;;;;;26.02;41.02;95312.41;5031252;28;20201;-63
2022/07/04 00:29:54;;;;;;;0.33;0.33;;;;;;;26.24;40.72;95317.22;5027423;28;20193;-64
2022/07/04 00:32:21;;;;;;;1.23;0.77;;;;;;;26.03;40.82;95316.63;5022077;28;20201;-65
2022/07/04 00:34:48;;;;;;;0.13;0.13;;;;;;;25.58;41.50;95318.81;5042693;28;20262;-64
2022/07/04 00:37:15;;;;;;;0.50;0.50;;;;;;;25.70;41.72;95321.44;5029083;28;20274;-64
2022/07/04 00:39:42;;;;;;;3.40;0.93;;;;;;;25.82;41.12;95313.38;5023321;28;20340;-64
2022/07/04 00:42:09;;;;;;;1.10;0.97;;;;;;;25.73;41.26;95312.75;5050775;28;20201;-63
2022/07/04 00:44:36;;;;;;;0.40;0.40;;;;;;;25.57;41.00;95301.91;5037411;28;20232;-64
2022/07/04 00:47:04;;;;;;;0.47;0.47;;;;;;;25.68;40.84;95312.97;5036144;28;20664;-63
2022/07/04 00:49:32;;;;;;;0.40;0.40;;;;;;;25.23;41.31;95296.25;5027219;28;20194;-63
2022/07/04 00:52:00;;;;;;;2.00;0.93;;;;;;;25.34;40.74;95318.81;5024880;28;20202;-65
2022/07/04 00:54:30;;;;;;;0.40;0.40;;;;;;;25.32;40.33;95311.13;5031807;28;20204;-64
2022/07/04 00:56:57;;;;;;;0.40;0.40;;;;;;;25.29;40.77;95316.38;5023283;28;20301;-65
2022/07/04 00:59:24;;;;;;;0.43;0.43;;;;;;;25.20;40.65;95307.69;5038374;28;20660;-65
2022/07/04 01:01:51;;;;;;;0.60;0.60;;;;;;;24.74;41.16;95309.69;5026040;28;20202;-63
2022/07/04 01:04:18;;;;;;;0.30;0.30;;;;;;;25.17;41.11;95308.34;5021308;28;20779;-64
2022/07/04 01:06:45;;;;;;;0.50;0.50;;;;;;;25.03;41.24;95314.84;5033692;28;20200;-63
2022/07/04 01:09:12;;;;;;;2.20;0.50;;;;;;;24.64;40.94;95310.09;5022964;28;20229;-64
2022/07/04 01:11:40;;;;;;;0.77;0.77;;;;;;;25.13;40.84;95296.75;5042467;28;20197;-65
2022/07/04 01:14:07;;;;;;;0.50;0.50;;;;;;;25.32;40.44;95294.22;5044245;28;20196;-65
2022/07/04 01:16:34;;;;;;;0.40;0.40;;;;;;;25.32;40.14;95305.75;5016562;28;20655;-64
2022/07/04 01:19:01;;;;;;;0.60;0.60;;;;;;;25.20;40.41;95296.94;5030704;28;20201;-64
2022/07/04 01:21:29;;;;;;;0.30;0.30;;;;;;;24.90;40.09;95299.88;5034745;28;20201;-65
2022/07/04 01:23:56;;;;;;;7.00;1.63;;;;;;;25.16;40.70;95296.06;5039170;28;20221;-64
2022/07/04 01:26:23;;;;;;;0.60;0.60;;;;;;;24.95;40.16;95310.38;5032961;28;20228;-64
2022/07/04 01:28:49;;;;;;;0.40;0.40;;;;;;;24.97;40.50;95300.09;5031569;28;20193;-65
2022/07/04 01:31:16;;;;;;;0.30;0.30;;;;;;;25.09;40.35;95291.25;5038380;28;20271;-63
2022/07/04 01:33:43;;;;;;;0.30;0.30;;;;;;;25.46;39.78;95294.69;5025475;28;20249;-65
2022/07/04 01:36:10;;;;;;;2.57;1.20;;;;;;;25.56;39.49;95299.59;5022563;28;20198;-64
2022/07/04 01:38:36;;;;;;;0.30;0.30;;;;;;;25.59;39.68;95309.63;5016145;28;20709;-64
2022/07/04 01:41:03;;;;;;;0.50;0.50;;;;;;;25.49;38.79;95304.75;5042146;28;20672;-64
2022/07/04 01:43:30;;;;;;;0.30;0.30;;;;;;;25.29;39.72;95306.41;5031541;28;20255;-64
2022/07/04 01:45:57;;;;;;;1.17;0.50;;;;;;;25.37;40.03;95296.69;5019558;28;20194;-64
2022/07/04 01:48:24;;;;;;;0.30;0.30;;;;;;;25.42;39.76;95309.91;5043157;28;20705;-65
2022/07/04 01:50:50;;;;;;;1.33;1.23;;;;;;;25.49;39.56;95304.75;5041507;28;20560;-64
2022/07/04 01:53:17;;;;;;;0.27;0.27;;;;;;;25.50;39.49;95308.97;5043571;28;20208;-64
2022/07/04 01:55:44;;;;;;;1.90;0.70;;;;;;;25.42;39.14;95309.91;5019216;28;20201;-65
2022/07/04 01:58:12;;;;;;;0.20;0.20;;;;;;;25.51;39.39;95303.28;5028664;28;20727;-64
2022/07/04 02:03:24;;;;;;;0.20;0.20;;;;;;;25.29;39.28;95305.66;5032259;28;20684;-64
2022/07/04 02:05:51;;;;;;;2.07;0.83;;;;;;;25.32;38.85;95300.38;5029490;28;20263;-64
2022/07/04 02:08:18;;;;;;;0.40;0.40;;;;;;;25.40;39.01;95306.78;5028633;28;20260;-64
2022/07/04 02:10:45;;;;;;;0.20;0.20;;;;;;;25.56;38.42;95305.75;5037399;28;20640;-64
2022/07/04 02:13:13;;;;;;;0.20;0.20;;;;;;;25.55;37.98;95303.38;5022839;28;20184;-65
2022/07/04 02:15:41;;;;;;;1.43;0.67;;;;;;;25.42;38.03;95305.31;5049413;28;20553;-64
2022/07/04 02:18:10;;;;;;;0.80;0.80;;;;;;;25.45;38.53;95314.59;5016320;28;20205;-64
2022/07/04 02:20:37;;;;;;;1.13;1.13;;;;;;;25.36;38.74;95303.19;5041135;28;20192;-63
2022/07/04 02:23:05;;;;;;;0.70;0.70;;;;;;;25.45;38.19;95315.38;5049409;28;20223;-64
2022/07/04 02:25:31;;;;;;;0.47;0.47;;;;;;;25.24;38.26;95308.53;5028690;28;20782;-63
2022/07/04 02:27:58;;;;;;;0.30;0.30;;;;;;;25.21;38.44;95314.59;5025607;28;20201;-64
2022/07/04 02:30:25;;;;;;;5.63;1.67;;;;;;;25.14;38.85;95319.75;5029320;28;20201;-64
2022/07/04 02:32:52;;;;;;;0.50;0.50;;;;;;;25.20;38.23;95313.03;5044140;28;20258;-65
2022/07/04 02:35:19;;;;;;;1.00;0.77;;;;;;;24.70;37.59;95319.53;5035934;28;20202;-64
2022/07/04 02:37:46;;;;;;;0.30;0.30;;;;;;;25.03;38.33;95322.91;5035081;28;20698;-64
2022/07/04 02:40:12;;;;;;;0.20;0.20;;;;;;;25.09;38.45;95320.75;5048966;28;20197;-64
2022/07/04 02:42:39;;;;;;;0.53;0.53;;;;;;;25.07;37.54;95318.41;5037541;28;20679;-64
2022/07/04 02:45:07;;;;;;;0.43;0.43;;;;;;;25.06;38.33;95319.53;5039588;28;20221;-63
2022/07/04 02:47:34;;;;;;;3.07;1.40;;;;;;;25.20;37.87;95313.03;5027285;28;20675;-65
2022/07/04 02:50:03;;;;;;;0.80;0.80;;;;;;;25.26;38.00;95317.03;5034899;28;20280;-64
2022/07/04 02:52:30;;;;;;;0.20;0.20;;;;;;;25.34;37.75;95316.16;5040498;28;20213;-64
2022/07/04 02:54:57;;;;;;;0.20;0.20;;;;;;;25.01;37.45;95327.81;5014852;28;20731;-63
2022/07/04 02:57:24;;;;;;;0.17;0.13;;;;;;;25.13;37.49;95323.56;5018937;28;20205;-64
2022/07/04 02:59:51;;;;;;;2.30;0.97;;;;;;;24.97;38.32;95326.13;5040981;28;20262;-64
2022/07/04 03:02:18;;;;;;;0.50;0.50;;;;;;;24.91;38.59;95328.25;5025375;28;20257;-64
2022/07/04 03:04:45;;;;;;;0.40;0.40;;;;;;;24.74;39.15;95333.81;5048785;28;20223;-64
2022/07/04 03:07:12;;;;;;;0.90;0.60;;;;;;;24.83;39.16;95336.41;5039602;28;20190;-64
2022/07/04 03:09:39;;;;;;;0.43;0.43;;;;;;;24.96;39.31;95346.78;5017961;28;20197;-63
2022/07/04 03:12:06;;;;;;;1.13;1.03;;;;;;;25.02;38.60;95340.09;5044128;28;20239;-65
2022/07/04 03:14:33;;;;;;;0.67;0.67;;;;;;;24.91;38.45;95328.25;5037960;28;20725;-63
2022/07/04 03:17:00;;;;;;;0.30;0.30;;;;;;;24.92;38.25;95345.13;5052360;28;20204;-64
2022/07/04 03:19:27;;;;;;;0.43;0.30;;;;;;;25.04;38.46;95351.25;5048333;28;20687;-66
2022/07/04 03:21:54;;;;;;;2.30;1.20;;;;;;;25.02;37.74;95337.41;5020731;28;20197;-64
2022/07/04 03:24:21;;;;;;;0.67;0.67;;;;;;;25.06;37.11;95346.34;5046655;28;20235;-64
2022/07/04 03:26:48;;;;;;;2.23;2.00;;;;;;;24.95;37.61;95347.91;5045325;28;20228;-67
2022/07/04 03:29:14;;;;;;;0.90;0.90;;;;;;;24.66;38.80;95347.28;5019760;28;20209;-64
2022/07/04 03:31:41;;;;;;;0.20;0.20;;;;;;;24.62;39.24;95341.81;5049874;28;20193;-65
2022/07/04 03:34:08;;;;;;;0.30;0.30;;;;;;;24.93;38.55;95336.72;5052088;28;20197;-64
2022/07/04 03:36:35;;;;;;;1.00;0.90;;;;;;;25.08;38.13;95341.44;5048100;28;20201;-65
2022/07/04 03:39:02;;;;;;;0.60;0.60;;;;;;;25.25;37.76;95342.31;5041456;28;20208;-64
2022/07/04 03:41:29;;;;;;;0.60;0.60;;;;;;;25.31;37.74;95335.59;5036170;28;20552;-64
2022/07/04 03:43:56;;;;;;;0.60;0.60;;;;;;;25.18;37.33;95339.41;5032083;28;20275;-64
2022/07/04 03:46:23;;;;;;;0.50;0.50;;;;;;;25.20;37.22;95339.88;5044169;28;20201;-63
2022/07/04 03:48:50;;;;;;;0.10;0.10;;;;;;;24.64;37.37;95336.13;5025477;28;20284;-64
2022/07/04 03:51:17;;;;;;;1.00;0.90;;;;;;;25.07;37.42;95337.16;5038034;28;20266;-64
2022/07/04 03:53:44;;;;;;;0.40;0.40;;;;;;;25.23;37.49;95339.19;5018565;28;20224;-65
2022/07/04 03:56:11;;;;;;;0.30;0.30;;;;;;;25.18;37.68;95332.16;5017782;28;20735;-64
2022/07/04 03:58:39;;;;;;;1.43;1.27;;;;;;;25.26;38.29;95333.91;5018077;28;20201;-64
2022/07/04 04:01:06;;;;;;;0.60;0.60;;;;;;;25.23;38.47;95337.28;5024942;28;20190;-65
2022/07/04 04:06:18;;;;;;;0.47;0.47;;;;;;;25.27;39.31;95332.03;5025243;28;20293;-65
2022/07/04 04:08:45;;;;;;;0.50;0.50;;;;;;;25.39;39.75;95335.50;5025779;28;20280;-65
2022/07/04 04:11:11;;;;;;;1.07;0.93;;;;;;;25.18;40.25;95342.09;5033651;28;20215;-64
2022/07/04 04:13:38;;;;;;;0.93;0.93;;;;;;;25.38;40.27;95331.28;5030631;28;20268;-65
2022/07/04 04:16:05;;;;;;;0.40;0.37;;;;;;;25.39;39.69;95332.03;5015404;28;20205;-65
2022/07/04 04:18:32;;;;;;;1.93;1.30;;;;;;;25.35;39.91;95326.53;5029658;28;20197;-64
2022/07/04 04:20:59;;;;;;;11.20;1.37;;;;;;;25.34;40.12;95340.28;5050121;28;20737;-64
2022/07/04 04:23:25;;;;;;;0.93;0.80;;;;;;;25.35;40.85;95341.84;5029563;28;20201;-64
2022/07/04 04:25:52;;;;;;;0.40;0.40;;;;;;;25.34;40.35;95356.38;5009957;28;20249;-63
2022/07/04 04:28:22;;;;;;;1.03;1.03;;;;;;;25.13;40.32;95355.75;5022713;28;20254;-64
2022/07/04 04:30:50;;;;;;;0.27;0.27;;;;;;;25.06;40.80;95346.34;5049713;28;20188;-65
2022/07/04 04:33:17;;;;;;;0.40;0.40;;;;;;;25.50;40.40;95343.88;5011620;28;20668;-65
2022/07/04 04:35:43;;;;;;;0.77;0.77;;;;;;;25.64;40.39;95342.38;5032530;28;20200;-66
2022/07/04 04:38:10;;;;;;;0.50;0.50;;;;;;;25.63;40.52;95350.78;5046754;28;20195;-64
2022/07/04 04:40:37;;;;;;;1.17;0.93;;;;;;;25.50;40.77;95344.66;5029960;28;20633;-65
2022/07/04 04:43:04;;;;;;;0.20;0.20;;;;;;;25.39;41.96;95350.81;5042364;28;20223;-64
2022/07/04 04:45:30;;;;;;;0.30;0.30;;;;;;;25.39;41.68;95348.13;5025159;28;20277;-65
2022/07/04 04:47:57;;;;;;;1.50;1.40;;;;;;;25.64;41.47;95353.13;5049428;28;20211;-68
2022/07/04 04:50:24;;;;;;;1.63;1.60;;;;;;;25.79;41.32;95357.78;5042712;28;20262;-66
2022/07/04 04:52:51;;;;;;;6.40;4.40;;;;;;;26.06;40.76;95350.88;5018395;28;20236;-65
2022/07/04 04:55:18;;;;;;;4.47;4.07;;;;;;;25.78;41.68;95344.72;5009787;28;20228;-62
2022/07/04 04:57:44;;;;;;;0.93;0.90;;;;;;;26.01;40.53;95348.44;5023418;28;20202;-65
2022/07/04 05:00:12;;;;;;;0.73;0.73;;;;;;;26.06;40.29;95350.13;5016833;28;20614;-65
2022/07/04 05:02:39;;;;;;;1.03;0.93;;;;;;;25.77;40.78;95345.81;5030364;28;20197;-68
2022/07/04 05:05:06;;;;;;;0.50;0.50;;;;;;;25.84;40.30;95354.06;5016297;28;20224;-62
2022/07/04 05:07:33;;;;;;;0.30;0.30;;;;;;;25.86;40.29;95357.97;5035548;28;20192;-66
2022/07/04 05:10:02;;;;;;;1.90;1.23;;;;;;;25.76;40.17;95346.94;5011039;28;20194;-64
2022/07/04 05:12:29;;;;;;;0.87;0.87;;;;;;;25.87;40.64;95348.03;5038146;28;20207;-64
2022/07/04 05:14:56;;;;;;;1.87;1.00;;;;;;;25.83;40.44;95347.16;5024298;28;20682;-65
2022/07/04 05:17:23;;;;;;;1.07;1.00;;;;;;;26.13;39.77;95339.56;5025733;28;20895;-67
2022/07/04 05:19:50;;;;;;;0.50;0.50;;;;;;;26.03;38.73;95335.44;5010554;28;20205;-64
2022/07/04 05:22:17;;;;;;;0.40;0.40;;;;;;;26.12;39.30;95338.78;5034385;28;20204;-66
2022/07/04 05:24:44;;;;;;;0.50;0.50;;;;;;;26.34;38.85;95330.16;5034770;28;20212;-67
2022/07/04 05:27:12;;;;;;;0.80;0.67;;;;;;;26.42;38.65;95334.59;5049744;28;20232;-65
2022/07/04 05:29:38;;;;;;;0.83;0.50;;;;;;;26.37;38.05;95345.59;5020981;28;20197;-67
2022/07/04 05:32:06;;;;;;;0.90;0.90;;;;;;;26.55;37.24;95344.16;5036225;28;20637;-68
2022/07/04 05:34:34;;;;;;;0.47;0.47;;;;;;;26.64;37.50;95341.31;5017657;28;20197;-64
2022/07/04 05:37:02;;;;;;;0.30;0.30;;;;;;;26.16;39.68;95342.34;5040634;28;20246;-66
2022/07/04 05:39:29;;;;;;;0.30;0.30;;;;;;;26.66;37.19;95345.19;5036193;28;20695;-65
2022/07/04 05:41:56;;;;;;;0.47;0.47;;;;;;;26.75;37.65;95345.84;5033567;28;20262;-69
2022/07/04 05:44:23;;;;;;;0.10;0.10;;;;;;;26.22;36.92;95343.69;5035135;28;20202;-69
2022/07/04 05:46:50;;;;;;;0.10;0.10;;;;;;;26.52;36.15;95339.47;5023640;28;20204;-65
2022/07/04 05:49:17;;;;;;;0.37;0.37;;;;;;;26.66;36.09;95336.38;5038382;28;20287;-64
2022/07/04 05:51:44;;;;;;;0.30;0.30;;;;;;;26.75;35.14;95351.22;5033513;28;20207;-70
2022/07/04 05:54:11;;;;;;;0.40;0.40;;;;;;;26.62;36.04;95341.63;5035345;28;20672;-70
2022/07/04 05:56:39;;;;;;;0.27;0.27;;;;;;;26.69;36.94;95341.09;5022054;28;20188;-69
2022/07/04 05:59:06;;;;;;;0.67;0.60;;;;;;;27.01;35.87;95332.66;5049718;28;20671;-70
2022/07/04 06:01:33;;;;;;;0.30;0.30;;;;;;;26.76;35.78;95347.44;5049472;28;20250;-67
2022/07/04 06:03:59;;;;;;;0.20;0.20;;;;;;;26.70;36.61;95348.81;5049580;28;20200;-69
2022/07/04 06:06:26;;;;;;;0.23;0.23;;;;;;;26.95;36.31;95344.03;5035225;28;20650;-67
2022/07/04 06:08:53;;;;;;;0.40;0.40;;;;;;;26.36;37.33;95349.44;5023604;28;20327;-71
2022/07/04 06:11:20;;;;;;;0.87;0.47;;;;;;;26.99;35.99;95351.06;5037974;28;20201;-65
2022/07/04 06:13:46;;;;;;;0.73;0.73;;;;;;;27.01;36.37;95342.63;5032518;28;20250;-66
2022/07/04 06:16:13;;;;;;;0.20;0.20;;;;;;;27.11;35.66;95341.34;5021467;28;20207;-71
2022/07/04 06:18:41;;;;;;;0.40;0.40;;;;;;;27.24;35.07;95348.19;5049765;28;20200;-71
2022/07/04 06:21:08;;;;;;;0.63;0.63;;;;;;;27.22;35.52;95353.13;5033375;28;20197;-67
2022/07/04 06:23:35;;;;;;;0.40;0.40;;;;;;;27.63;35.44;95341.75;5029584;28;20243;-69
2022/07/04 06:26:02;;;;;;;0.40;0.40;;;;;;;26.91;36.89;95337.78;5015037;28;20303;-70
2022/07/04 06:28:30;;;;;;;0.60;0.60;;;;;;;26.95;36.37;95344.81;5022460;28;20197;-67
2022/07/04 06:31:13;;;;;;;2.57;1.03;;;;;;;26.65;36.27;95334.81;5047115;28;20238;-66
2022/07/04 06:36:25;;;;;;;1.63;0.60;;;;;;;27.22;36.30;95342.34;5019382;28;20647;-68
2022/07/04 06:38:52;;;;;;;0.30;0.30;;;;;;;27.76;35.40;95333.22;5021482;28;20288;-73
2022/07/04 06:41:19;;;;;;;2.00;0.70;;;;;;;27.71;36.00;95332.72;5039565;28;20278;-64
2022/07/04 06:43:45;;;;;;;0.63;0.63;;;;;;;27.33;35.49;95329.97;5019291;28;20198;-65
2022/07/04 06:46:12;;;;;;;1.27;0.83;;;;;;;27.29;34.99;95321.00;5045552;28;20274;-68
2022/07/04 06:48:39;;;;;;;0.43;0.43;;;;;;;27.55;34.88;95318.53;5023664;28;20282;-68
2022/07/04 06:51:06;;;;;;;9.80;1.27;;;;;;;27.58;34.08;95323.19;5043355;28;20193;-66
2022/07/04 06:53:34;;;;;;;4.90;0.67;;;;;;;27.54;35.79;95333.09;5045776;28;20193;-64
2022/07/04 06:56:01;;;;;;;0.30;0.30;;;;;;;27.48;34.54;95323.75;5020012;28;20276;-67
2022/07/04 06:58:28;;;;;;;6.33;2.23;;;;;;;27.67;34.70;95323.78;5045040;28;20567;-67
2022/07/04 07:00:54;;;;;;;0.17;0.17;;;;;;;28.01;34.70;95314.13;5021702;28;20307;-65
2022/07/04 07:03:21;;;;;;;0.90;0.90;;;;;;;28.18;34.02;95314.44;5040321;28;20598;-64
2022/07/04 07:05:48;;;;;;;0.37;0.37;;;;;;;28.41;34.17;95307.16;5029973;28;20306;-66
2022/07/04 07:08:26;;;;;;;1.20;1.03;;;;;;;28.08;34.79;95312.34;5026500;28;20710;-67
2022/07/04 07:10:53;;;;;;;1.63;0.97;;;;;;;27.81;35.25;95319.47;5042115;28;20196;-63
2022/07/04 07:13:20;;;;;;;0.63;0.63;;;;;;;28.52;34.10;95302.78;5040607;28;20577;-67
2022/07/04 07:15:47;;;;;;;0.40;0.40;;;;;;;28.05;36.11;95313.03;5024976;28;20256;-64
2022/07/04 07:18:14;;;;;;;1.83;0.90;;;;;;;28.59;34.81;95313.72;5018526;28;20741;-63
2022/07/04 07:20:40;;;;;;;0.80;0.80;;;;;;;28.60;34.62;95304.47;5032524;28;20201;-65
2022/07/04 07:23:07;;;;;;;0.30;0.30;;;;;;;28.53;34.81;95309.75;5045957;28;20660;-66
2022/07/04 07:25:34;;;;;;;0.57;0.50;;;;;;;29.03;34.22;95299.75;5042326;28;20653;-67
2022/07/04 07:28:01;;;;;;;0.20;0.20;;;;;;;29.11;33.43;95304.13;5024588;28;20198;-68
2022/07/04 07:30:28;;;;;;;4.10;0.80;;;;;;;28.45;33.58;95297.22;5034996;28;20252;-71
2022/07/04 07:32:54;;;;;;;2.13;1.10;;;;;;;28.86;33.47;95296.44;5027550;28;20201;-69
2022/07/04 07:35:21;;;;;;;0.70;0.70;;;;;;;28.80;35.37;95292.47;5032471;28;20201;-67
2022/07/04 07:37:48;;;;;;;0.67;0.63;;;;;;;29.22;34.47;95291.59;5019083;28;20236;-68
2022/07/04 07:40:15;;;;;;;4.37;1.40;;;;;;;29.39;34.19;95296.47;5045376;28;20189;-70
2022/07/04 07:42:42;;;;;;;0.67;0.67;;;;;;;29.05;34.61;95289.41;5031928;28;20690;-69
2022/07/04 07:45:09;;;;;;;0.93;0.73;;;;;;;29.30;33.47;95271.66;5035725;28;20254;-68
2022/07/04 07:47:36;;;;;;;0.37;0.37;;;;;;;29.31;34.63;95289.41;5041768;28;20643;-73
2022/07/04 07:50:04;;;;;;;0.33;0.33;;;;;;;29.18;33.31;95290.78;5047908;28;20196;-67
2022/07/04 07:52:31;;;;;;;1.33;0.80;;;;;;;29.53;34.33;95297.44;5033896;28;20206;-65
2022/07/04 07:54:57;;;;;;;0.60;0.60;;;;;;;29.70;33.82;95290.75;5033381;28;20660;-68
2022/07/04 07:57:26;;;;;;;0.80;0.80;;;;;;;29.91;32.84;95280.19;5032395;28;20559;-68
2022/07/04 07:59:53;;;;;;;0.60;0.60;;;;;;;30.14;32.47;95272.72;5046814;28;20679;-67
2022/07/04 08:04:33;;;;;;;0.73;0.73;;;;;;;29.99;34.19;95284.53;5028800;28;20200;-69
2022/07/04 08:05:08;;;;;;;0.70;0.70;;;;;;;30.08;33.98;95279.63;5045551;28;20590;-67
2022/07/04 08:07:35;;;;;;;0.43;0.43;;;;;;;29.66;33.26;95281.78;5029263;28;20251;-67
2022/07/04 08:10:03;;;;;;;0.83;0.80;;;;;;;30.17;32.38;95277.38;5020462;28;20197;-65
2022/07/04 08:12:30;;;;;;;1.10;1.00;;;;;;;30.35;33.26;95281.06;5045544;28;20204;-68
2022/07/04 08:14:59;;;;;;;0.97;0.60;;;;;;;30.16;35.44;95281.25;5031693;28;20227;-65
2022/07/04 08:17:32;;;;;;;12.30;1.20;;;;;;;30.59;33.51;95279.75;5030900;28;20216;-64
2022/07/04 08:19:59;;;;;;;0.50;0.50;;;;;;;30.66;33.47;95282.53;5024558;28;20766;-67
2022/07/04 08:22:26;;;;;;;1.10;0.80;;;;;;;30.20;34.64;95276.63;5038580;28;20574;-65
2022/07/04 08:24:54;;;;;;;0.57;0.57;;;;;;;30.63;33.24;95265.13;5049854;28;20571;-69
2022/07/04 08:27:22;;;;;;;0.50;0.50;;;;;;;30.68;33.52;95280.22;5023439;28;20238;-66
2022/07/04 08:29:57;;;;;;;0.63;0.53;;;;;;;30.80;33.59;95269.13;5034239;28;20270;-64
2022/07/04 08:32:24;;;;;;;2.27;1.37;;;;;;;30.63;32.94;95267.84;5029526;28;20185;-69
2022/07/04 08:34:51;;;;;;;0.53;0.53;;;;;;;30.88;33.88;95254.50;5041976;28;20225;-65
2022/07/04 08:37:18;;;;;;;0.60;0.60;;;;;;;30.77;34.69;95262.53;5022288;28;20206;-66
2022/07/04 08:39:45;;;;;;;1.10;0.60;;;;;;;30.74;33.77;95263.28;5040458;28;20200;-68
2022/07/04 08:42:17;;;;;;;0.70;0.70;;;;;;;31.25;32.93;95265.22;5023612;28;20252;-66
2022/07/04 08:44:50;;;;;;;0.50;0.50;;;;;;;31.23;33.09;95262.09;5011206;28;20635;-65
2022/07/04 08:47:21;;;;;;;0.47;0.47;;;;;;;31.22;34.56;95260.56;5025932;28;20812;-67
2022/07/04 08:50:03;;;;;;;0.90;0.87;;;;;;;31.31;33.72;95259.06;5036832;28;20207;-68
2022/07/04 08:52:36;;;;;;;1.43;0.83;;;;;;;31.78;32.67;95250.03;5011126;28;20198;-69
2022/07/04 09:00:38;;;;;;;0.70;0.70;;;;;;;31.63;33.48;95248.41;5019179;28;20251;-65
2022/07/04 09:03:05;;;;;;;0.80;0.80;;;;;;;31.80;32.55;95253.13;5030470;28;20591;-69
2022/07/04 09:05:34;;;;;;;0.83;0.83;;;;;;;31.63;32.33;95243.78;5037240;28;20204;-66
2022/07/04 09:08:02;;;;;;;0.90;0.90;;;;;;;31.80;32.55;95247.72;5017917;28;20518;-66
2022/07/04 09:10:30;;;;;;;1.47;1.37;;;;;;;31.58;33.57;95243.38;5012840;28;20193;-65
2022/07/04 09:12:57;;;;;;;0.47;0.47;;;;;;;31.68;33.15;95251.53;5038456;28;20731;-67
2022/07/04 09:15:39;;;;;;;1.63;0.97;;;;;;;32.13;32.56;95250.19;5022965;28;20205;-68
2022/07/04 09:18:05;;;;;;;0.63;0.63;;;;;;;31.66;31.45;95247.69;5016650;28;20197;-66
2022/07/04 09:20:33;;;;;;;0.50;0.50;;;;;;;32.13;32.09;95250.19;5030370;28;20239;-67
2022/07/04 09:23:00;;;;;;;0.50;0.50;;;;;;;31.81;31.39;95243.84;5044246;28;20197;-66
2022/07/04 09:25:27;;;;;;;0.80;0.80;;;;;;;32.07;31.63;95246.28;5039269;28;20711;-66
2022/07/04 09:27:56;;;;;;;1.00;1.00;;;;;;;32.52;30.41;95245.59;5048502;28;20200;-64
2022/07/04 09:30:26;;;;;;;0.77;0.77;;;;;;;32.21;31.30;95234.69;5030135;28;20656;-67
2022/07/04 09:33:02;;;;;;;1.07;0.80;;;;;;;32.42;30.26;95240.97;5030842;28;20201;-67
2022/07/04 09:35:32;;;;;;;0.73;0.63;;;;;;;32.33;31.83;95237.81;5049884;28;20204;-66
2022/07/04 09:38:04;;;;;;;0.57;0.57;;;;;;;32.82;31.16;95228.94;5034374;28;20255;-65
2022/07/04 09:41:24;;;;;;;0.80;0.80;;;;;;;32.57;31.25;95231.66;5015018;28;20196;-65
2022/07/04 09:43:21;;;;;;;0.50;0.40;;;;;;;32.99;29.61;95228.19;5029279;28;20589;-67
2022/07/04 09:45:54;;;;;;;1.03;0.60;;;;;;;32.81;30.59;95219.22;5039959;28;20270;-66
2022/07/04 09:48:22;;;;;;;0.50;0.50;;;;;;;32.32;29.62;95219.97;5029768;28;20675;-66
2022/07/04 09:50:49;;;;;;;1.40;1.10;;;;;;;32.97;30.76;95205.31;5038201;28;20236;-65
2022/07/04 09:53:17;;;;;;;0.73;0.50;;;;;;;32.96;30.85;95214.59;5048417;28;20702;-67
2022/07/04 09:55:47;;;;;;;3.87;0.97;;;;;;;32.76;31.89;95216.91;5010139;28;20206;-65
2022/07/04 09:58:15;;;;;;;0.30;0.30;;;;;;;33.28;31.16;95210.69;5037634;28;20200;-65
2022/07/04 10:00:45;;;;;;;0.60;0.60;;;;;;;33.30;30.10;95218.44;5027884;28;20201;-68
2022/07/04 10:03:30;;;;;;;1.93;1.50;;;;;;;33.17;31.63;95217.28;5046238;28;20634;-67
2022/07/04 10:06:12;;;;;;;2.67;1.30;;;;;;;33.18;31.96;95221.53;5020112;28;20209;-65
2022/07/04 10:08:40;;;;;;;0.23;0.23;;;;;;;32.38;30.87;95202.16;5018469;28;20198;-66
2022/07/04 10:11:07;;;;;;;0.87;0.87;;;;;;;32.92;30.43;95221.97;5016638;28;20214;-67
2022/07/04 10:13:38;;;;;;;0.87;0.80;;;;;;;33.21;30.40;95221.53;5039478;28;20232;-66
2022/07/04 10:16:06;;;;;;;1.47;1.37;;;;;;;33.56;31.10;95209.81;5047666;28;20249;-67
2022/07/04 10:18:34;;;;;;;1.00;0.90;;;;;;;32.88;29.38;95207.63;5053718;28;20254;-66
2022/07/04 10:21:01;;;;;;;0.60;0.60;;;;;;;32.87;30.17;95222.34;5025495;28;20722;-62
2022/07/04 10:23:31;;;;;;;0.93;0.90;;;;;;;33.08;29.64;95219.63;5046495;28;20216;-65
2022/07/04 10:25:58;;;;;;;0.70;0.70;;;;;;;33.63;29.83;95209.81;5047040;28;20581;-68
2022/07/04 10:28:26;;;;;;;0.77;0.77;;;;;;;33.92;30.81;95213.94;5053245;28;20200;-65
2022/07/04 10:30:55;;;;;;;1.53;1.23;;;;;;;33.57;29.76;95216.81;5029391;28;20280;-66
2022/07/04 10:33:25;;;;;;;1.20;1.10;;;;;;;34.12;30.14;95208.81;5036892;28;20231;-67
2022/07/04 10:36:02;;;;;;;1.20;1.10;;;;;;;34.22;30.62;95208.72;5042258;28;20209;-68
2022/07/04 10:38:34;;;;;;;0.93;0.87;;;;;;;34.38;30.39;95206.28;5047292;28;20200;-65
2022/07/04 10:41:06;;;;;;;0.50;0.50;;;;;;;34.74;28.53;95199.41;5045177;28;20649;-64
2022/07/04 10:43:37;;;;;;;0.47;0.47;;;;;;;34.41;27.99;95191.88;5029816;28;20186;-66
2022/07/04 10:46:16;;;;;;;0.67;0.67;;;;;;;34.52;29.62;95189.91;5013256;28;20214;-64
2022/07/04 10:48:58;;;;;;;0.50;0.50;;;;;;;34.18;29.31;95199.81;5032356;28;20197;-67
2022/07/04 10:51:39;;;;;;;0.47;0.47;;;;;;;34.06;29.27;95200.28;5046827;28;20288;-66
2022/07/04 10:54:18;;;;;;;1.20;1.00;;;;;;;34.44;29.39;95191.13;5028296;28;20296;-66
2022/07/04 10:57:19;;;;;;;0.83;0.80;;;;;;;34.32;28.58;95186.13;5015863;28;20664;-65
2022/07/04 10:59:59;;;;;;;0.67;0.67;;;;;;;34.74;29.88;95185.78;5044432;28;20736;-78
2022/07/04 11:02:28;;;;;;;0.47;0.47;;;;;;;35.05;29.42;95181.28;5043732;28;20207;-67
2022/07/04 11:04:56;;;;;;;1.50;1.17;;;;;;;34.46;29.50;95175.16;5048867;28;20262;-66
2022/07/04 11:07:43;;;;;;;0.73;0.40;;;;;;;34.40;29.49;95171.28;5051115;28;20699;-68
2022/07/04 11:13:07;;;;;;;0.63;0.60;;;;;;;34.72;30.01;95177.28;5046582;28;20219;-72
2022/07/04 11:15:34;;;;;;;1.00;1.00;;;;;;;34.58;29.62;95177.38;5045079;28;20291;-64
2022/07/04 11:18:08;;;;;;;0.40;0.40;;;;;;;34.39;28.34;95169.75;5029773;28;20197;-73
2022/07/04 11:20:38;;;;;;;0.50;0.50;;;;;;;34.60;28.63;95169.59;5024136;28;20658;-72
2022/07/04 11:23:07;;;;;;;0.60;0.60;;;;;;;34.60;28.48;95175.03;5046358;28;20240;-66
2022/07/04 11:25:34;;;;;;;0.80;0.80;;;;;;;34.42;28.57;95160.78;5032150;28;20302;-67
2022/07/04 11:28:22;;;;;;;0.83;0.83;;;;;;;34.74;30.76;95168.69;5021170;28;20236;-70
2022/07/04 11:31:10;;;;;;;0.90;0.90;;;;;;;34.94;29.29;95160.75;5038108;28;20197;-71
2022/07/04 11:33:39;;;;;;;0.57;0.57;;;;;;;35.17;28.39;95163.63;5038810;28;20268;-63
2022/07/04 11:36:08;;;;;;;0.60;0.60;;;;;;;34.93;28.79;95159.94;5025552;28;20198;-69
2022/07/04 11:38:47;;;;;;;0.60;0.60;;;;;;;35.23;28.58;95162.00;5025623;28;20232;-70
2022/07/04 11:47:32;;;;;;;0.70;0.70;;;;;;;35.48;27.59;95151.59;5051440;28;20784;-69
2022/07/04 11:49:59;;;;;;;0.47;0.47;;;;;;;35.52;28.04;95146.88;5051215;28;20215;-64
2022/07/04 11:52:29;;;;;;;0.80;0.80;;;;;;;35.88;28.76;95141.72;5051820;28;20196;-67
2022/07/04 11:55:17;;;;;;;0.70;0.70;;;;;;;35.84;28.93;95130.09;5039419;28;20186;-69
2022/07/04 11:57:50;;;;;;;3.93;2.10;;;;;;;35.82;28.84;95127.78;5037222;28;20200;-70
2022/07/04 12:00:20;;;;;;;4.93;1.10;;;;;;;35.92;28.54;95126.88;5040833;28;20198;-70
2022/07/04 12:02:48;;;;;;;0.80;0.80;;;;;;;35.35;28.76;95126.03;5023698;28;20204;-68